Time;durP1;ratioP1;P1;durP2;ratioP2;P2;SDS_P1;SDS_P2;PMS_P1;PMS_P2;Temp;Humidity;BMP_temperature;BMP_pressure;BME280_temperature;BME280_humidity;BME280_pressure;Samples;Min_cycle;Max_cycle;Signal;HPM_P1;HPM_P2
2021/01/27 00:00:12;;;;;;;8.82;3.80;;;2.20;99.90;;;;;;5007981;28;20710;-59
2021/01/27 00:02:38;;;;;;;10.50;4.37;;;2.20;99.90;;;;;;5007915;28;20493;-58
2021/01/27 00:05:08;;;;;;;11.30;4.90;;;2.30;99.90;;;;;;5010465;28;20814;-58
2021/01/27 00:07:34;;;;;;;12.48;4.60;;;2.30;99.90;;;;;;5009862;28;20052;-58
2021/01/27 00:10:01;;;;;;;11.63;4.97;;;2.30;99.90;;;;;;5009573;28;20532;-57
2021/01/27 00:12:27;;;;;;;15.63;5.55;;;2.30;99.90;;;;;;5004043;28;20058;-59
2021/01/27 00:14:54;;;;;;;14.32;5.63;;;2.40;99.90;;;;;;5009540;28;20456;-58
2021/01/27 00:17:20;;;;;;;11.77;4.25;;;2.40;99.90;;;;;;5004276;28;20046;-58
2021/01/27 00:19:47;;;;;;;13.85;5.38;;;2.40;99.90;;;;;;5009880;28;20057;-59
2021/01/27 00:22:13;;;;;;;12.15;4.57;;;2.40;99.90;;;;;;5004023;28;20053;-59
2021/01/27 00:24:40;;;;;;;14.32;4.70;;;2.40;99.90;;;;;;5006969;28;20065;-58
2021/01/27 00:27:06;;;;;;;17.05;5.20;;;2.40;99.90;;;;;;5009945;28;20045;-58
2021/01/27 00:29:33;;;;;;;20.80;6.47;;;2.40;99.90;;;;;;5007337;28;20049;-59
2021/01/27 00:31:59;;;;;;;16.92;5.55;;;2.40;99.90;;;;;;5006994;28;20034;-59
2021/01/27 00:34:26;;;;;;;21.77;5.65;;;2.40;99.90;;;;;;5009591;28;20046;-59
2021/01/27 00:36:53;;;;;;;17.80;5.38;;;2.40;99.90;;;;;;5010662;28;20108;-58
2021/01/27 00:39:19;;;;;;;19.70;6.47;;;2.40;99.90;;;;;;5007917;28;20038;-59
2021/01/27 00:41:46;;;;;;;20.52;6.28;;;2.40;99.90;;;;;;5003987;28;20046;-59
2021/01/27 00:44:12;;;;;;;17.13;6.35;;;2.40;99.90;;;;;;5010744;28;20041;-58
2021/01/27 00:46:39;;;;;;;22.33;6.18;;;2.40;99.90;;;;;;5008520;28;20054;-58
2021/01/27 00:49:06;;;;;;;18.92;6.85;;;2.30;99.90;;;;;;5008137;28;20429;-60
2021/01/27 00:51:32;;;;;;;19.17;6.45;;;2.20;99.90;;;;;;5006714;28;20045;-58
2021/01/27 00:54:00;;;;;;;17.77;6.80;;;2.10;99.90;;;;;;5002762;28;20513;-58
2021/01/27 00:56:27;;;;;;;19.05;6.25;;;2.10;99.90;;;;;;5025063;28;20050;-59
2021/01/27 00:58:54;;;;;;;18.70;6.93;;;2.00;99.90;;;;;;5006922;28;20034;-58
2021/01/27 01:01:33;;;;;;;20.17;6.07;;;1.90;99.90;;;;;;5007737;28;20050;-58
2021/01/27 01:04:03;;;;;;;20.10;6.63;;;1.80;99.90;;;;;;5015909;28;20384;-58
2021/01/27 01:06:30;;;;;;;21.83;6.40;;;1.70;99.90;;;;;;4999976;28;20065;-58
2021/01/27 01:08:56;;;;;;;17.80;6.82;;;1.60;99.90;;;;;;5008448;28;20041;-58
2021/01/27 01:11:23;;;;;;;21.70;6.85;;;1.50;99.90;;;;;;5006909;28;20052;-58
2021/01/27 01:13:49;;;;;;;22.50;7.55;;;1.50;99.90;;;;;;5006274;28;20527;-58
2021/01/27 01:16:16;;;;;;;19.15;6.20;;;1.50;99.90;;;;;;5010438;28;20444;-58
2021/01/27 01:18:43;;;;;;;18.58;6.32;;;1.40;99.90;;;;;;5009479;28;20572;-60
2021/01/27 01:21:09;;;;;;;19.30;5.80;;;1.30;99.90;;;;;;5004822;28;20070;-58
2021/01/27 01:23:36;;;;;;;16.88;5.55;;;1.30;99.90;;;;;;5005726;28;20052;-58
2021/01/27 01:26:03;;;;;;;17.95;6.80;;;1.30;99.90;;;;;;5009652;28;20057;-60
2021/01/27 01:28:29;;;;;;;19.05;7.22;;;1.20;99.90;;;;;;5005424;28;20379;-58
2021/01/27 01:30:56;;;;;;;21.73;5.97;;;1.10;99.90;;;;;;5009554;28;20057;-58
2021/01/27 01:33:28;;;;;;;20.63;6.47;;;1.00;99.90;;;;;;5007169;28;20034;-58
2021/01/27 01:35:54;;;;;;;18.55;6.25;;;1.00;99.90;;;;;;5006950;28;20041;-59
2021/01/27 01:38:21;;;;;;;21.33;6.75;;;0.90;99.90;;;;;;5005127;28;20476;-59
2021/01/27 01:40:58;;;;;;;19.02;6.05;;;0.80;99.90;;;;;;5008460;28;20412;-58
2021/01/27 01:43:29;;;;;;;20.08;6.95;;;0.80;99.90;;;;;;5003129;28;20048;-58
2021/01/27 01:46:01;;;;;;;15.93;5.72;;;0.80;99.90;;;;;;5012626;28;20046;-58
2021/01/27 01:48:32;;;;;;;15.30;5.40;;;0.70;99.90;;;;;;5012245;28;20046;-59
2021/01/27 01:51:05;;;;;;;15.00;4.45;;;0.70;99.90;;;;;;5007111;28;20296;-58
2021/01/27 01:53:32;;;;;;;12.07;4.55;;;0.70;99.90;;;;;;5012192;28;20056;-59
2021/01/27 01:56:02;;;;;;;10.70;3.80;;;0.70;99.90;;;;;;5010254;28;20042;-59
2021/01/27 01:58:28;;;;;;;13.52;4.97;;;0.60;99.90;;;;;;5013598;28;20111;-59
2021/01/27 02:00:58;;;;;;;16.38;5.25;;;0.50;99.90;;;;;;5010969;28;20409;-58
2021/01/27 02:03:28;;;;;;;15.10;5.10;;;0.50;99.90;;;;;;5021527;28;20050;-58
2021/01/27 02:05:57;;;;;;;12.30;4.55;;;0.50;99.90;;;;;;5007972;28;20049;-58
2021/01/27 02:08:24;;;;;;;14.25;5.05;;;0.40;99.90;;;;;;5013069;28;20046;-58
2021/01/27 02:10:51;;;;;;;14.77;5.20;;;0.40;99.90;;;;;;5012719;28;20099;-59
2021/01/27 02:13:44;;;;;;;13.77;5.20;;;0.30;99.90;;;;;;5012925;28;20466;-58
2021/01/27 02:16:43;;;;;;;13.13;3.95;;;0.30;99.90;;;;;;4989430;28;20046;-58
2021/01/27 02:19:26;;;;;;;11.05;3.95;;;0.30;99.90;;;;;;5009036;28;20100;-58
2021/01/27 02:22:23;;;;;;;10.43;3.53;;;0.30;99.90;;;;;;5004423;28;20050;-59
2021/01/27 02:25:08;;;;;;;7.95;2.90;;;0.20;99.90;;;;;;5004838;28;20049;-58
2021/01/27 02:27:46;;;;;;;9.20;2.97;;;0.20;99.90;;;;;;5011010;28;20049;-58
2021/01/27 02:30:50;;;;;;;14.18;3.85;;;0.20;99.90;;;;;;4987655;28;20560;-58
2021/01/27 02:33:33;;;;;;;;;;;0.10;99.90;;;;;;5007820;28;20050;-58
2021/01/27 02:36:24;;;;;;;10.32;3.53;;;0.10;99.90;;;;;;5004753;28;19925;-58
2021/01/27 02:38:59;;;;;;;10.65;3.65;;;0.00;99.90;;;;;;5006736;28;20597;-59
2021/01/27 02:41:38;;;;;;;11.90;3.65;;;0.00;99.90;;;;;;5005213;28;20064;-58
2021/01/27 02:44:11;;;;;;;8.73;3.08;;;-0.10;99.90;;;;;;5009629;28;20056;-58
2021/01/27 02:46:52;;;;;;;8.50;3.70;;;-0.10;99.90;;;;;;5008079;28;20049;-59
2021/01/27 02:49:31;;;;;;;10.13;3.42;;;-0.20;99.90;;;;;;5003340;28;20069;-59
2021/01/27 02:52:07;;;;;;;13.73;4.78;;;-0.20;99.90;;;;;;5004601;28;20530;-58
2021/01/27 02:55:05;;;;;;;11.10;3.90;;;-0.30;99.90;;;;;;4991824;28;20057;-59
2021/01/27 02:57:41;;;;;;;8.90;3.35;;;-0.30;99.90;;;;;;5026680;28;20420;-58
2021/01/27 03:00:26;;;;;;;11.68;4.50;;;-0.40;99.90;;;;;;5007354;28;20041;-58
2021/01/27 03:03:15;;;;;;;9.50;3.60;;;-0.50;99.90;;;;;;4997533;28;20082;-58
2021/01/27 03:05:46;;;;;;;10.60;3.67;;;-0.50;99.90;;;;;;5022796;28;20096;-59
2021/01/27 03:08:24;;;;;;;8.82;3.35;;;-0.50;99.90;;;;;;5005893;28;20044;-59
2021/01/27 03:11:12;;;;;;;9.70;3.67;;;-0.60;99.90;;;;;;5010558;28;20038;-58
2021/01/27 03:13:43;;;;;;;13.45;4.10;;;-0.60;99.90;;;;;;5010615;28;20431;-58
2021/01/27 03:16:15;;;;;;;8.52;3.25;;;-0.60;99.90;;;;;;5010205;28;20038;-58
2021/01/27 03:18:46;;;;;;;10.85;3.95;;;-0.70;99.90;;;;;;5004518;28;20050;-58
2021/01/27 03:21:17;;;;;;;10.70;3.97;;;-0.70;99.90;;;;;;5009550;28;20448;-58
2021/01/27 03:23:55;;;;;;;10.13;3.92;;;-0.80;99.90;;;;;;5010813;28;20038;-58
2021/01/27 03:26:28;;;;;;;13.77;3.95;;;-0.80;99.90;;;;;;5004494;28;20058;-59
2021/01/27 03:29:15;;;;;;;10.13;4.07;;;-0.80;99.90;;;;;;5001962;28;20046;-58
2021/01/27 03:31:42;;;;;;;9.35;3.63;;;-0.80;99.90;;;;;;5007592;28;20053;-57
2021/01/27 03:34:23;;;;;;;12.10;3.80;;;-0.80;99.90;;;;;;5012622;28;20046;-59
2021/01/27 03:37:02;;;;;;;9.52;3.30;;;-0.80;99.90;;;;;;5004832;28;20077;-58
2021/01/27 03:39:36;;;;;;;13.27;4.18;;;-0.80;99.90;;;;;;5009595;28;20049;-58
2021/01/27 03:42:13;;;;;;;12.43;3.95;;;-0.90;99.90;;;;;;5006898;28;20054;-58
2021/01/27 03:44:47;;;;;;;9.82;4.03;;;-0.90;99.90;;;;;;5011380;28;20045;-59
2021/01/27 03:47:19;;;;;;;12.68;4.35;;;-0.80;99.90;;;;;;4989966;28;20058;-58
2021/01/27 03:50:01;;;;;;;14.35;4.57;;;-0.80;99.90;;;;;;5018910;28;20474;-58
2021/01/27 03:52:45;;;;;;;11.85;4.40;;;-0.80;99.90;;;;;;5008540;28;20042;-58
2021/01/27 03:55:34;;;;;;;15.07;5.13;;;-0.70;99.90;;;;;;5007543;28;20046;-58
2021/01/27 03:58:33;;;;;;;14.63;4.80;;;-0.70;99.90;;;;;;5004055;28;20251;-59
2021/01/27 04:01:07;;;;;;;13.10;4.28;;;-0.70;99.90;;;;;;4997803;28;20034;-57
2021/01/27 04:03:34;;;;;;;13.95;4.25;;;-0.70;99.90;;;;;;5006438;28;20107;-58
2021/01/27 04:06:02;;;;;;;13.30;4.97;;;-0.70;99.90;;;;;;5010260;28;20046;-58
2021/01/27 04:08:29;;;;;;;12.05;4.80;;;-0.70;99.90;;;;;;5006245;28;20473;-59
2021/01/27 04:10:56;;;;;;;19.08;5.20;;;-0.70;99.90;;;;;;5008824;28;20081;-58
2021/01/27 04:13:23;;;;;;;15.88;5.25;;;-0.70;99.90;;;;;;5007138;28;20065;-58
2021/01/27 04:15:49;;;;;;;13.55;4.63;;;-0.70;99.90;;;;;;5006578;28;20401;-58
2021/01/27 04:18:16;;;;;;;14.18;4.75;;;-0.80;99.90;;;;;;5007271;28;20046;-59
2021/01/27 04:20:43;;;;;;;16.33;4.57;;;-0.80;99.90;;;;;;4998139;28;20501;-58
2021/01/27 04:23:09;;;;;;;12.38;4.30;;;-0.80;99.90;;;;;;5010754;28;20049;-58
2021/01/27 04:25:36;;;;;;;13.38;4.70;;;-0.80;99.90;;;;;;5008325;28;20053;-59
2021/01/27 04:28:03;;;;;;;12.85;4.38;;;-0.70;99.90;;;;;;5009278;28;20567;-60
2021/01/27 04:30:32;;;;;;;15.68;5.07;;;-0.70;99.90;;;;;;5005894;28;20045;-57
2021/01/27 04:33:00;;;;;;;13.90;5.45;;;-0.80;99.90;;;;;;5007809;28;20124;-59
2021/01/27 04:35:28;;;;;;;14.50;4.88;;;-0.70;99.90;;;;;;5010441;28;20046;-58
2021/01/27 04:37:55;;;;;;;16.52;5.68;;;-0.70;99.90;;;;;;4999007;28;20050;-58
2021/01/27 04:40:30;;;;;;;15.45;4.85;;;-0.70;99.90;;;;;;5003461;28;20042;-57
2021/01/27 04:42:57;;;;;;;15.43;5.25;;;-0.70;99.90;;;;;;5000267;28;20459;-58
2021/01/27 04:45:25;;;;;;;14.50;5.03;;;-0.70;99.90;;;;;;5004452;28;20439;-59
2021/01/27 04:47:56;;;;;;;16.73;5.32;;;-0.70;99.90;;;;;;5010943;28;20046;-58
2021/01/27 04:50:28;;;;;;;14.50;5.38;;;-0.80;99.90;;;;;;5011089;28;20132;-58
2021/01/27 04:53:00;;;;;;;16.73;5.65;;;-0.80;99.90;;;;;;5007834;28;20496;-58
2021/01/27 04:55:27;;;;;;;18.13;5.93;;;-0.80;99.90;;;;;;5009100;28;20042;-58
2021/01/27 04:58:07;;;;;;;15.07;5.85;;;-0.80;99.90;;;;;;5006853;28;20116;-59
2021/01/27 05:01:22;;;;;;;16.02;5.60;;;-0.80;99.90;;;;;;5007193;28;20042;-60
2021/01/27 05:04:18;;;;;;;17.38;6.07;;;-0.80;99.90;;;;;;5007156;28;20065;-57
2021/01/27 05:06:49;;;;;;;16.55;5.28;;;-0.80;99.90;;;;;;5009672;28;20042;-57
2021/01/27 05:09:33;;;;;;;14.05;5.82;;;-0.80;99.90;;;;;;4999362;28;20504;-59
2021/01/27 05:12:04;;;;;;;19.95;5.85;;;-0.80;99.90;;;;;;5003216;28;20369;-59
2021/01/27 05:14:31;;;;;;;21.77;6.55;;;-0.80;99.90;;;;;;5007876;28;20054;-57
2021/01/27 05:17:03;;;;;;;24.63;8.75;;;-0.80;99.90;;;;;;5011680;28;20042;-57
2021/01/27 05:19:30;;;;;;;21.40;8.00;;;-0.80;99.90;;;;;;5007953;28;20033;-59
2021/01/27 05:21:58;;;;;;;25.90;8.02;;;-0.80;99.90;;;;;;5007623;28;20096;-58
2021/01/27 05:24:24;;;;;;;18.70;7.78;;;-0.80;99.90;;;;;;5004412;28;20374;-58
2021/01/27 05:27:05;;;;;;;22.83;7.88;;;-0.80;99.90;;;;;;5009234;28;20053;-58
2021/01/27 05:29:40;;;;;;;28.85;9.48;;;-0.80;99.90;;;;;;5005178;28;20056;-59
2021/01/27 05:32:14;;;;;;;23.02;8.85;;;-0.80;99.90;;;;;;5007466;28;20038;-57
2021/01/27 05:34:51;;;;;;;20.13;6.80;;;-0.80;99.90;;;;;;5001465;28;20117;-58
2021/01/27 05:37:33;;;;;;;21.30;6.85;;;-0.80;99.90;;;;;;5008732;28;20080;-57
2021/01/27 05:40:30;;;;;;;18.02;7.28;;;-0.90;99.90;;;;;;5005394;28;20038;-57
2021/01/27 05:42:57;;;;;;;21.77;7.07;;;-0.80;99.90;;;;;;5005442;28;20046;-59
2021/01/27 05:45:36;;;;;;;25.42;8.95;;;-0.90;99.90;;;;;;5006126;28;20057;-58
2021/01/27 05:48:12;;;;;;;24.88;9.27;;;-0.90;99.90;;;;;;5005761;28;20042;-59
2021/01/27 05:50:41;;;;;;;22.70;8.35;;;-0.90;99.90;;;;;;5002160;28;20442;-58
2021/01/27 05:53:20;;;;;;;25.40;8.68;;;-0.90;99.90;;;;;;4999967;28;20034;-58
2021/01/27 05:55:57;;;;;;;25.77;10.40;;;-0.90;99.90;;;;;;5006901;28;20489;-59
2021/01/27 05:58:24;;;;;;;20.60;7.97;;;-1.00;99.90;;;;;;5009884;28;20042;-58
2021/01/27 06:00:51;;;;;;;19.92;7.97;;;-1.00;99.90;;;;;;4999532;28;20050;-57
2021/01/27 06:03:23;;;;;;;18.85;7.50;;;-1.00;99.90;;;;;;5006240;28;20050;-58
2021/01/27 06:05:51;;;;;;;25.30;9.05;;;-1.00;99.90;;;;;;5007771;28;20053;-60
2021/01/27 06:08:23;;;;;;;19.73;7.85;;;-1.00;99.90;;;;;;5005380;28;20050;-57
2021/01/27 06:10:50;;;;;;;21.38;7.20;;;-1.00;99.90;;;;;;5008395;28;20078;-59
2021/01/27 06:13:26;;;;;;;23.02;8.88;;;-1.00;99.90;;;;;;5007490;28;20052;-58
2021/01/27 06:15:55;;;;;;;34.42;11.20;;;-1.10;99.90;;;;;;5007962;28;20046;-59
2021/01/27 06:18:28;;;;;;;23.35;10.10;;;-1.10;99.90;;;;;;5008580;28;20481;-60
2021/01/27 06:21:09;;;;;;;25.00;8.68;;;-1.10;99.90;;;;;;5000714;28;20052;-58
2021/01/27 06:23:57;;;;;;;24.55;9.07;;;-1.10;99.90;;;;;;5006354;28;20052;-58
2021/01/27 06:26:45;;;;;;;19.55;7.43;;;-1.10;99.90;;;;;;5005745;28;20050;-58
2021/01/27 06:29:18;;;;;;;25.95;9.77;;;-1.10;99.90;;;;;;5008313;28;20061;-58
2021/01/27 06:32:03;;;;;;;27.45;10.35;;;-1.10;99.90;;;;;;5003332;28;20042;-58
2021/01/27 06:34:54;;;;;;;32.40;11.27;;;-1.10;99.90;;;;;;5011449;28;20491;-59
2021/01/27 06:37:42;;;;;;;38.38;13.70;;;-1.10;99.90;;;;;;5006508;28;20054;-58
2021/01/27 06:40:15;;;;;;;26.95;11.00;;;-1.00;99.90;;;;;;5005742;28;20038;-58
2021/01/27 06:43:16;;;;;;;25.40;10.25;;;-1.00;99.90;;;;;;5006424;28;20697;-58
2021/01/27 06:45:56;;;;;;;38.35;13.80;;;-1.00;99.90;;;;;;5007853;28;20053;-58
2021/01/27 06:48:42;;;;;;;32.78;14.10;;;-1.00;99.90;;;;;;5008678;28;20061;-58
2021/01/27 06:51:40;;;;;;;39.50;15.65;;;-1.00;99.90;;;;;;5010741;28;20104;-59
2021/01/27 06:54:19;;;;;;;30.45;12.13;;;-0.90;99.90;;;;;;5001580;28;20050;-59
2021/01/27 06:57:11;;;;;;;60.03;21.13;;;-0.80;99.90;;;;;;5003554;28;20096;-58
2021/01/27 06:59:58;;;;;;;32.63;12.00;;;-0.70;99.90;;;;;;5007015;28;20045;-58
2021/01/27 07:02:37;;;;;;;57.78;17.45;;;-0.70;99.90;;;;;;4999027;28;20501;-58
2021/01/27 07:05:26;;;;;;;43.42;16.27;;;-0.60;99.90;;;;;;5019859;28;20054;-59
2021/01/27 07:08:11;;;;;;;35.75;14.55;;;-0.50;99.90;;;;;;4999049;28;20157;-58
2021/01/27 07:10:47;;;;;;;30.20;10.40;;;-0.50;99.90;;;;;;5017220;28;20046;-59
2021/01/27 07:13:43;;;;;;;23.60;8.70;;;-0.50;99.90;;;;;;5022660;28;20072;-58
2021/01/27 07:16:44;;;;;;;27.77;8.52;;;-0.30;99.90;;;;;;5005236;28;20807;-57
2021/01/27 07:19:39;;;;;;;26.92;10.32;;;-0.20;99.90;;;;;;5004284;28;20053;-58
2021/01/27 07:22:38;;;;;;;36.42;14.25;;;-0.10;99.90;;;;;;5004752;28;20104;-58
2021/01/27 07:25:10;;;;;;;30.02;13.18;;;0.10;99.90;;;;;;4984382;28;20057;-60
2021/01/27 07:28:00;;;;;;;;;;;0.20;99.90;;;;;;4988124;28;20620;-58
2021/01/27 07:30:53;;;;;;;44.03;18.30;;;0.40;99.90;;;;;;4891848;29;19935;-58
2021/01/27 07:33:30;;;;;;;39.08;14.52;;;0.50;99.90;;;;;;4891749;29;20049;-59
2021/01/27 07:35:59;;;;;;;37.60;14.15;;;0.70;99.90;;;;;;4889534;29;20057;-58
2021/01/27 07:38:32;;;;;;;26.70;10.27;;;0.90;99.90;;;;;;4890546;29;20066;-58
2021/01/27 07:41:05;;;;;;;26.50;9.82;;;1.00;99.90;;;;;;4890812;29;20079;-60
2021/01/27 07:43:37;;;;;;;;;;;1.10;99.90;;;;;;4892459;29;20048;-59
2021/01/27 07:46:03;;;;;;;26.02;8.43;;;1.20;99.90;;;;;;4894578;29;19927;-60
2021/01/27 07:48:58;;;;;;;28.45;10.98;;;1.30;99.90;;;;;;4877467;29;20061;-59
2021/01/27 07:51:29;;;;;;;18.88;7.28;;;1.40;99.90;;;;;;4876305;29;20056;-59
2021/01/27 07:54:11;;;;;;;19.90;8.38;;;1.60;99.90;;;;;;4894286;29;20461;-59
2021/01/27 07:57:06;;;;;;;24.65;8.68;;;1.60;99.90;;;;;;4891362;29;20773;-57
2021/01/27 07:59:41;;;;;;;21.00;7.00;;;1.80;99.90;;;;;;4886750;29;20059;-58
2021/01/27 08:02:20;;;;;;;23.45;8.48;;;1.90;99.90;;;;;;4908281;29;20067;-59
2021/01/27 08:04:55;;;;;;;26.83;8.63;;;1.90;99.90;;;;;;4924029;29;20099;-59
2021/01/27 08:07:30;;;;;;;19.77;7.80;;;2.10;99.90;;;;;;4946214;28;21858;-57
2021/01/27 08:10:11;;;;;;;19.35;6.47;;;2.20;99.90;;;;;;5004031;28;20041;-57
2021/01/27 08:12:59;;;;;;;21.75;7.70;;;2.40;99.90;;;;;;5004350;28;20045;-58
2021/01/27 08:15:25;;;;;;;18.00;6.80;;;2.50;99.90;;;;;;5002733;28;20046;-59
2021/01/27 08:17:54;;;;;;;18.17;7.25;;;2.70;99.90;;;;;;4979440;28;20045;-59
2021/01/27 08:20:34;;;;;;;17.92;6.45;;;2.90;99.90;;;;;;5002623;28;20046;-58
2021/01/27 08:23:05;;;;;;;16.45;5.47;;;2.90;99.90;;;;;;4997154;28;20053;-58
2021/01/27 08:25:49;;;;;;;16.27;4.80;;;2.90;99.90;;;;;;4996845;28;20041;-59
2021/01/27 08:28:36;;;;;;;26.05;8.52;;;2.90;99.90;;;;;;4995679;28;20503;-58
2021/01/27 08:31:09;;;;;;;20.95;6.97;;;3.00;99.90;;;;;;4997158;28;20330;-59
2021/01/27 08:33:47;;;;;;;35.65;12.57;;;3.10;99.90;;;;;;4997970;28;20496;-59
2021/01/27 08:36:15;;;;;;;30.10;12.05;;;3.10;99.90;;;;;;4997723;28;20567;-60
2021/01/27 08:39:12;;;;;;;19.92;5.57;;;3.10;99.70;;;;;;4998621;28;20688;-58
2021/01/27 08:41:58;;;;;;;22.98;6.65;;;3.10;99.90;;;;;;5005451;28;20172;-59
2021/01/27 08:44:35;;;;;;;17.38;6.53;;;3.10;99.70;;;;;;5006780;28;20049;-59
2021/01/27 08:47:19;;;;;;;18.58;6.90;;;3.10;99.90;;;;;;4998891;28;20048;-62
2021/01/27 08:50:00;;;;;;;17.92;6.75;;;3.20;99.90;;;;;;5006390;28;20041;-58
2021/01/27 08:52:29;;;;;;;15.02;5.30;;;3.30;99.90;;;;;;5004386;28;20477;-58
2021/01/27 08:54:56;;;;;;;18.73;5.88;;;3.40;99.70;;;;;;5004092;28;20038;-58
2021/01/27 08:57:29;;;;;;;17.50;5.63;;;3.50;98.70;;;;;;5002457;28;20070;-58
2021/01/27 09:00:08;;;;;;;53.75;21.30;;;3.50;97.40;;;;;;5000539;28;20041;-59
2021/01/27 09:03:02;;;;;;;20.92;9.18;;;3.50;97.80;;;;;;5001373;28;20490;-58
2021/01/27 09:05:32;;;;;;;13.98;5.82;;;3.50;96.80;;;;;;5021831;28;20045;-58
2021/01/27 09:08:03;;;;;;;14.25;6.13;;;3.60;97.00;;;;;;5004371;28;20046;-58
2021/01/27 09:10:39;;;;;;;15.15;6.13;;;3.70;96.90;;;;;;5002518;28;20045;-57
2021/01/27 09:13:33;;;;;;;16.70;6.25;;;3.80;96.60;;;;;;5001543;28;20049;-57
2021/01/27 09:16:01;;;;;;;10.43;4.47;;;3.90;95.20;;;;;;5001506;28;20048;-58
2021/01/27 09:18:28;;;;;;;13.57;5.22;;;3.90;94.80;;;;;;5004587;28;20045;-58
2021/01/27 09:21:02;;;;;;;12.85;5.57;;;4.00;94.60;;;;;;5002781;28;20048;-57
2021/01/27 09:23:29;;;;;;;12.88;4.90;;;4.10;94.10;;;;;;5003775;28;20053;-59
2021/01/27 09:25:55;;;;;;;15.30;4.90;;;4.20;92.90;;;;;;4999974;28;20493;-59
2021/01/27 09:28:24;;;;;;;13.43;5.13;;;4.40;93.00;;;;;;5005514;28;20045;-57
2021/01/27 09:30:53;;;;;;;12.02;4.28;;;4.50;92.40;;;;;;5000793;28;20046;-58
2021/01/27 09:33:35;;;;;;;13.52;4.70;;;4.50;90.20;;;;;;5001694;28;20042;-58
2021/01/27 09:36:10;;;;;;;16.77;4.47;;;4.50;90.60;;;;;;5006086;28;20041;-58
2021/01/27 09:38:37;;;;;;;11.10;3.88;;;4.60;90.70;;;;;;4994519;28;20092;-57
2021/01/27 09:41:08;;;;;;;12.13;5.30;;;4.70;90.80;;;;;;4999795;28;20061;-59
2021/01/27 09:43:40;;;;;;;12.70;4.07;;;4.80;89.90;;;;;;5009480;28;20060;-58
2021/01/27 09:46:40;;;;;;;23.50;5.63;;;4.80;88.50;;;;;;5005526;28;20048;-58
2021/01/27 09:49:11;;;;;;;9.40;3.45;;;4.70;88.70;;;;;;5007897;28;20104;-58
2021/01/27 09:51:42;;;;;;;12.93;4.55;;;4.80;86.90;;;;;;5008383;28;20034;-58
2021/01/27 09:54:10;;;;;;;12.30;4.63;;;4.90;87.50;;;;;;5005322;28;20045;-58
2021/01/27 09:56:37;;;;;;;11.40;4.65;;;4.90;86.70;;;;;;5006520;28;20049;-57
2021/01/27 09:59:03;;;;;;;10.45;4.05;;;5.00;86.50;;;;;;5008203;28;20046;-60
2021/01/27 10:01:32;;;;;;;10.90;4.00;;;5.00;84.10;;;;;;5002893;28;20085;-60
2021/01/27 10:04:15;;;;;;;11.35;4.88;;;4.80;84.90;;;;;;5012285;28;20721;-59
2021/01/27 10:06:52;;;;;;;10.90;5.03;;;4.80;85.30;;;;;;5005940;28;20043;-59
2021/01/27 10:09:24;;;;;;;11.18;3.75;;;4.70;85.00;;;;;;5004011;28;20058;-60
2021/01/27 10:12:04;;;;;;;13.68;4.90;;;4.60;84.90;;;;;;5009468;28;20053;-59
2021/01/27 10:14:33;;;;;;;10.05;4.07;;;4.50;84.90;;;;;;5010740;28;20519;-59
2021/01/27 10:17:03;;;;;;;14.68;5.03;;;4.40;86.50;;;;;;5004289;28;20046;-58
2021/01/27 10:19:35;;;;;;;11.70;5.25;;;4.50;85.50;;;;;;5012788;28;20046;-60
2021/01/27 10:22:05;;;;;;;14.95;5.07;;;4.50;85.60;;;;;;5003596;28;20049;-58
2021/01/27 10:24:46;;;;;;;13.40;5.90;;;4.70;86.30;;;;;;5014404;28;20042;-60
2021/01/27 10:27:20;;;;;;;19.42;6.85;;;4.90;85.80;;;;;;5014789;28;20053;-59
2021/01/27 10:29:47;;;;;;;18.13;5.65;;;5.10;85.90;;;;;;5010315;28;20060;-58
2021/01/27 10:32:24;;;;;;;11.45;4.75;;;5.40;83.20;;;;;;5011879;28;20097;-58
2021/01/27 10:34:52;;;;;;;10.30;4.47;;;5.60;81.90;;;;;;4995328;28;20532;-60
2021/01/27 10:37:36;;;;;;;20.50;4.80;;;5.60;79.60;;;;;;5013316;28;20038;-58
2021/01/27 10:40:07;;;;;;;12.45;5.25;;;5.40;79.10;;;;;;5014543;28;20535;-59
2021/01/27 10:42:42;;;;;;;12.32;5.72;;;5.30;78.90;;;;;;5011579;28;20072;-59
2021/01/27 10:45:34;;;;;;;12.00;4.88;;;5.30;79.90;;;;;;5012629;28;20136;-61
2021/01/27 10:48:10;;;;;;;10.88;4.53;;;5.00;79.70;;;;;;5013006;28;20042;-58
2021/01/27 10:50:44;;;;;;;9.52;3.88;;;5.20;80.50;;;;;;5012827;28;20645;-60
2021/01/27 10:53:30;;;;;;;10.82;4.82;;;5.40;79.50;;;;;;5007045;28;20448;-60
2021/01/27 10:55:57;;;;;;;11.82;4.70;;;5.60;79.20;;;;;;5012424;28;20046;-58
2021/01/27 10:58:24;;;;;;;11.40;4.47;;;5.70;78.50;;;;;;5007572;28;20097;-58
2021/01/27 11:00:51;;;;;;;10.07;4.10;;;5.60;77.80;;;;;;5011458;28;20393;-57
2021/01/27 11:03:18;;;;;;;11.30;4.88;;;5.70;78.00;;;;;;5013015;28;20104;-57
2021/01/27 11:05:46;;;;;;;9.77;4.28;;;5.90;77.60;;;;;;5011562;28;20046;-59
2021/01/27 11:08:29;;;;;;;11.23;4.43;;;6.10;77.00;;;;;;5010615;28;20053;-58
2021/01/27 11:10:57;;;;;;;10.05;4.65;;;6.30;77.50;;;;;;5012271;28;20037;-58
2021/01/27 11:13:23;;;;;;;11.55;4.88;;;6.40;74.40;;;;;;5011162;28;20062;-59
2021/01/27 11:15:50;;;;;;;9.48;3.35;;;6.50;73.90;;;;;;5011700;28;20045;-59
2021/01/27 11:18:18;;;;;;;8.35;3.65;;;6.40;74.20;;;;;;5010816;28;20057;-57
2021/01/27 11:20:46;;;;;;;8.88;3.63;;;6.30;75.10;;;;;;4991200;28;20078;-58
2021/01/27 11:23:13;;;;;;;9.48;3.67;;;6.30;74.20;;;;;;5010082;28;20038;-58
2021/01/27 11:25:40;;;;;;;9.07;3.88;;;6.40;74.30;;;;;;5010045;28;20057;-58
2021/01/27 11:28:07;;;;;;;7.80;3.30;;;6.60;73.60;;;;;;5007740;28;20179;-58
2021/01/27 11:30:33;;;;;;;9.05;3.67;;;6.70;73.30;;;;;;5004895;28;20093;-57
2021/01/27 11:33:00;;;;;;;8.50;3.20;;;6.60;73.10;;;;;;5006926;28;20046;-58
2021/01/27 11:35:27;;;;;;;7.80;3.75;;;6.60;70.60;;;;;;5002163;28;20830;-58
2021/01/27 11:37:54;;;;;;;8.40;3.45;;;6.50;71.10;;;;;;5012397;28;20581;-58
2021/01/27 11:40:23;;;;;;;7.97;3.78;;;6.40;71.80;;;;;;5004274;28;20108;-58
2021/01/27 11:42:50;;;;;;;9.27;4.53;;;6.30;73.40;;;;;;5011603;28;20052;-57
2021/01/27 11:45:21;;;;;;;10.18;3.60;;;6.50;73.80;;;;;;5008008;28;20096;-58
2021/01/27 11:47:48;;;;;;;11.15;3.58;;;6.80;73.00;;;;;;5020565;28;20065;-59
2021/01/27 11:50:18;;;;;;;7.65;3.38;;;7.10;70.70;;;;;;5022628;28;20061;-57
2021/01/27 11:52:46;;;;;;;7.80;2.70;;;7.10;68.50;;;;;;5000730;28;20363;-58
2021/01/27 11:55:13;;;;;;;7.10;2.75;;;7.10;67.60;;;;;;4998671;28;20371;-59
2021/01/27 11:57:40;;;;;;;8.18;3.97;;;7.20;68.00;;;;;;5008745;28;20042;-58
2021/01/27 12:00:08;;;;;;;7.93;2.95;;;7.40;67.60;;;;;;5019904;28;20473;-57
2021/01/27 12:02:34;;;;;;;8.07;3.42;;;7.50;66.50;;;;;;5010345;28;20501;-58
2021/01/27 12:05:02;;;;;;;9.63;3.33;;;7.60;66.50;;;;;;5008760;28;20057;-57
2021/01/27 12:07:28;;;;;;;9.77;3.17;;;7.70;65.20;;;;;;5003706;28;20073;-58
2021/01/27 12:09:55;;;;;;;10.07;3.78;;;7.60;64.70;;;;;;5007050;28;20046;-58
2021/01/27 12:12:21;;;;;;;7.40;3.50;;;7.50;65.20;;;;;;4999123;28;20398;-59
2021/01/27 12:14:48;;;;;;;7.07;2.70;;;7.50;65.20;;;;;;4988159;28;20121;-61
2021/01/27 12:17:15;;;;;;;8.68;2.80;;;7.40;65.30;;;;;;4995451;28;20046;-60
2021/01/27 12:19:41;;;;;;;7.60;3.28;;;7.40;65.00;;;;;;5019612;28;20618;-58
2021/01/27 12:22:09;;;;;;;6.82;3.38;;;7.40;65.20;;;;;;5008400;28;20841;-57
2021/01/27 12:24:36;;;;;;;6.60;2.70;;;7.40;65.90;;;;;;5010473;28;20061;-58
2021/01/27 12:27:03;;;;;;;6.85;2.67;;;7.40;65.30;;;;;;5010783;28;20049;-57
2021/01/27 12:29:29;;;;;;;7.88;3.42;;;7.40;65.70;;;;;;5008986;28;20683;-59
2021/01/27 12:31:56;;;;;;;7.70;3.25;;;7.40;65.50;;;;;;5005712;28;20042;-60
2021/01/27 12:34:23;;;;;;;7.93;2.92;;;7.20;65.10;;;;;;4998237;28;20223;-57
2021/01/27 12:36:49;;;;;;;6.45;2.72;;;6.90;64.50;;;;;;5005900;28;20116;-56
2021/01/27 12:39:16;;;;;;;9.52;2.85;;;6.90;64.20;;;;;;5007133;28;20053;-57
2021/01/27 12:41:43;;;;;;;12.65;4.00;;;6.70;65.10;;;;;;5007927;28;20092;-57
2021/01/27 12:44:10;;;;;;;12.02;3.20;;;6.70;65.40;;;;;;5014447;28;20042;-58
2021/01/27 12:46:37;;;;;;;10.57;4.07;;;6.80;65.70;;;;;;5010409;28;20056;-58
2021/01/27 12:49:03;;;;;;;9.30;2.60;;;6.80;64.20;;;;;;5009996;28;20053;-59
2021/01/27 12:51:30;;;;;;;7.88;3.58;;;6.70;65.00;;;;;;5010503;28;20470;-59
2021/01/27 12:53:57;;;;;;;7.93;3.00;;;6.80;65.80;;;;;;5006960;28;20042;-59
2021/01/27 12:56:24;;;;;;;6.47;2.90;;;6.90;65.70;;;;;;5003747;28;20060;-57
2021/01/27 12:58:51;;;;;;;6.78;2.72;;;6.90;65.10;;;;;;5004141;28;20045;-61
2021/01/27 13:01:20;;;;;;;10.98;2.70;;;6.80;64.10;;;;;;4981427;28;20044;-58
2021/01/27 13:03:47;;;;;;;16.42;3.28;;;6.70;64.70;;;;;;4996402;28;20038;-57
2021/01/27 13:06:13;;;;;;;9.85;3.85;;;6.70;65.50;;;;;;4997196;28;20078;-57
2021/01/27 13:08:41;;;;;;;7.72;2.90;;;6.60;64.60;;;;;;5001806;28;20084;-59
2021/01/27 13:11:07;;;;;;;7.82;2.58;;;6.50;64.40;;;;;;5004652;28;20054;-59
2021/01/27 13:13:34;;;;;;;8.75;2.60;;;6.50;65.70;;;;;;5003180;28;20053;-56
2021/01/27 13:16:00;;;;;;;8.48;3.08;;;6.40;65.60;;;;;;5007273;28;20505;-57
2021/01/27 13:18:27;;;;;;;7.47;3.10;;;6.20;66.10;;;;;;5004514;28;20042;-57